sensor_id;sensor_type;location;lat;lon;timestamp;pressure;altitude;pressure_sealevel;temperature;humidity
73103;BME280;61294;65.988;29.172;2023-05-15T00:00:08;98947.44;;;4.93;66.86
73103;BME280;61294;65.988;29.172;2023-05-15T00:02:35;98948.25;;;4.91;66.60
73103;BME280;61294;65.988;29.172;2023-05-15T00:05:03;98942.31;;;4.98;66.41
73103;BME280;61294;65.988;29.172;2023-05-15T00:07:29;98941.56;;;5.04;67.00
73103;BME280;61294;65.988;29.172;2023-05-15T00:09:55;98943.44;;;5.09;67.19
73103;BME280;61294;65.988;29.172;2023-05-15T00:12:21;98956.47;;;5.08;66.83
73103;BME280;61294;65.988;29.172;2023-05-15T00:14:47;98945.75;;;4.97;66.91
73103;BME280;61294;65.988;29.172;2023-05-15T00:17:12;98954.19;;;4.83;67.28
73103;BME280;61294;65.988;29.172;2023-05-15T00:19:38;98927.00;;;4.75;67.43
73103;BME280;61294;65.988;29.172;2023-05-15T00:22:04;98962.00;;;4.83;67.40
73103;BME280;61294;65.988;29.172;2023-05-15T00:24:30;98939.03;;;4.69;67.53
73103;BME280;61294;65.988;29.172;2023-05-15T00:26:56;98912.56;;;4.53;67.52
73103;BME280;61294;65.988;29.172;2023-05-15T00:29:21;98916.81;;;4.48;67.75
73103;BME280;61294;65.988;29.172;2023-05-15T00:31:48;98948.50;;;4.63;67.70
73103;BME280;61294;65.988;29.172;2023-05-15T00:34:14;98950.06;;;4.57;68.12
73103;BME280;61294;65.988;29.172;2023-05-15T00:36:39;98951.66;;;4.52;68.53
73103;BME280;61294;65.988;29.172;2023-05-15T00:39:05;98943.72;;;4.47;68.78
73103;BME280;61294;65.988;29.172;2023-05-15T00:41:31;98954.03;;;4.41;68.87
73103;BME280;61294;65.988;29.172;2023-05-15T00:43:59;98954.94;;;4.43;68.87
73103;BME280;61294;65.988;29.172;2023-05-15T00:46:26;98897.75;;;4.15;68.52
73103;BME280;61294;65.988;29.172;2023-05-15T00:48:52;98957.38;;;4.35;68.29
73103;BME280;61294;65.988;29.172;2023-05-15T00:51:19;98946.97;;;4.37;68.50
73103;BME280;61294;65.988;29.172;2023-05-15T00:53:45;98938.72;;;4.20;69.02
73103;BME280;61294;65.988;29.172;2023-05-15T00:56:11;98949.97;;;4.19;69.26
73103;BME280;61294;65.988;29.172;2023-05-15T00:58:37;98946.56;;;4.21;69.50
73103;BME280;61294;65.988;29.172;2023-05-15T01:01:03;98963.09;;;4.22;69.75
73103;BME280;61294;65.988;29.172;2023-05-15T01:03:39;98951.72;;;4.18;69.50
73103;BME280;61294;65.988;29.172;2023-05-15T01:06:05;98953.28;;;4.11;69.57
73103;BME280;61294;65.988;29.172;2023-05-15T01:08:45;98935.97;;;4.13;69.94
73103;BME280;61294;65.988;29.172;2023-05-15T01:11:13;98914.03;;;4.05;69.82
73103;BME280;61294;65.988;29.172;2023-05-15T01:13:39;98940.28;;;4.13;70.15
73103;BME280;61294;65.988;29.172;2023-05-15T01:16:06;98936.78;;;4.12;70.16
73103;BME280;61294;65.988;29.172;2023-05-15T01:18:32;98960.41;;;4.19;70.22
73103;BME280;61294;65.988;29.172;2023-05-15T01:24:35;98943.91;;;4.18;70.62
73103;BME280;61294;65.988;29.172;2023-05-15T01:27:10;98945.28;;;4.04;70.28
73103;BME280;61294;65.988;29.172;2023-05-15T01:32:30;98948.75;;;4.04;70.62
73103;BME280;61294;65.988;29.172;2023-05-15T01:35:22;98940.84;;;4.01;70.41
73103;BME280;61294;65.988;29.172;2023-05-15T01:38:12;98935.75;;;4.06;70.12
73103;BME280;61294;65.988;29.172;2023-05-15T01:40:44;98954.22;;;4.13;70.16
73103;BME280;61294;65.988;29.172;2023-05-15T01:43:22;98955.63;;;4.01;70.83
73103;BME280;61294;65.988;29.172;2023-05-15T01:45:49;98935.31;;;3.89;70.55
73103;BME280;61294;65.988;29.172;2023-05-15T01:48:17;98956.06;;;3.86;71.08
73103;BME280;61294;65.988;29.172;2023-05-15T01:50:44;98962.72;;;3.74;70.97
73103;BME280;61294;65.988;29.172;2023-05-15T01:53:14;98953.34;;;3.81;71.05
73103;BME280;61294;65.988;29.172;2023-05-15T01:55:50;98956.13;;;3.87;71.08
73103;BME280;61294;65.988;29.172;2023-05-15T01:58:17;98953.47;;;3.86;70.84
73103;BME280;61294;65.988;29.172;2023-05-15T02:00:43;98955.16;;;3.84;71.19
73103;BME280;61294;65.988;29.172;2023-05-15T02:03:10;98951.66;;;3.83;71.76
73103;BME280;61294;65.988;29.172;2023-05-15T02:05:37;98964.94;;;3.92;71.84
73103;BME280;61294;65.988;29.172;2023-05-15T02:08:03;98962.56;;;4.02;71.03
73103;BME280;61294;65.988;29.172;2023-05-15T02:10:31;98947.53;;;3.91;71.34
73103;BME280;61294;65.988;29.172;2023-05-15T02:12:58;98946.78;;;3.95;70.76
73103;BME280;61294;65.988;29.172;2023-05-15T02:15:25;98969.53;;;4.01;71.84
73103;BME280;61294;65.988;29.172;2023-05-15T02:17:52;98966.97;;;4.03;71.92
73103;BME280;61294;65.988;29.172;2023-05-15T02:20:17;98969.81;;;4.12;71.53
73103;BME280;61294;65.988;29.172;2023-05-15T02:22:46;98947.19;;;4.11;71.15
73103;BME280;61294;65.988;29.172;2023-05-15T02:25:12;98967.47;;;4.23;71.37
73103;BME280;61294;65.988;29.172;2023-05-15T02:27:46;98973.81;;;4.32;71.45
73103;BME280;61294;65.988;29.172;2023-05-15T02:32:49;98948.75;;;4.38;71.09
73103;BME280;61294;65.988;29.172;2023-05-15T02:37:54;98974.59;;;4.63;71.33
73103;BME280;61294;65.988;29.172;2023-05-15T02:40:23;98915.53;;;4.30;71.60
73103;BME280;61294;65.988;29.172;2023-05-15T02:42:51;98931.47;;;4.43;71.66
73103;BME280;61294;65.988;29.172;2023-05-15T02:45:18;98968.66;;;4.71;71.62
73103;BME280;61294;65.988;29.172;2023-05-15T02:47:44;98968.00;;;4.79;72.20
73103;BME280;61294;65.988;29.172;2023-05-15T02:50:10;98965.16;;;4.70;72.56
73103;BME280;61294;65.988;29.172;2023-05-15T02:52:36;98965.28;;;4.75;72.32
73103;BME280;61294;65.988;29.172;2023-05-15T02:55:03;98962.72;;;4.76;72.54
73103;BME280;61294;65.988;29.172;2023-05-15T02:57:28;98931.22;;;4.70;72.20
73103;BME280;61294;65.988;29.172;2023-05-15T02:59:55;98971.19;;;5.06;72.32
73103;BME280;61294;65.988;29.172;2023-05-15T03:02:22;98947.63;;;5.03;72.80
73103;BME280;61294;65.988;29.172;2023-05-15T03:04:47;98944.91;;;4.98;72.82
73103;BME280;61294;65.988;29.172;2023-05-15T03:07:13;98907.88;;;4.75;73.02
73103;BME280;61294;65.988;29.172;2023-05-15T03:09:40;98974.63;;;5.03;72.88
73103;BME280;61294;65.988;29.172;2023-05-15T03:12:06;98959.06;;;5.08;73.17
73103;BME280;61294;65.988;29.172;2023-05-15T03:14:32;98969.72;;;5.18;72.41
73103;BME280;61294;65.988;29.172;2023-05-15T03:16:59;98962.94;;;5.27;72.65
73103;BME280;61294;65.988;29.172;2023-05-15T03:19:25;98940.19;;;5.21;72.70
73103;BME280;61294;65.988;29.172;2023-05-15T03:21:50;98973.75;;;5.44;72.74
73103;BME280;61294;65.988;29.172;2023-05-15T03:24:16;98972.13;;;5.49;72.56
73103;BME280;61294;65.988;29.172;2023-05-15T03:26:42;98934.53;;;5.42;73.26
73103;BME280;61294;65.988;29.172;2023-05-15T03:29:09;98966.31;;;5.64;73.61
73103;BME280;61294;65.988;29.172;2023-05-15T03:31:35;98966.25;;;5.59;73.84
73103;BME280;61294;65.988;29.172;2023-05-15T03:34:01;98949.72;;;5.60;73.49
73103;BME280;61294;65.988;29.172;2023-05-15T03:36:27;98968.22;;;5.71;73.49
73103;BME280;61294;65.988;29.172;2023-05-15T03:38:52;98963.06;;;5.76;73.27
73103;BME280;61294;65.988;29.172;2023-05-15T03:41:19;98906.91;;;5.53;72.99
73103;BME280;61294;65.988;29.172;2023-05-15T03:43:45;98954.59;;;5.87;72.72
73103;BME280;61294;65.988;29.172;2023-05-15T03:46:11;98958.03;;;5.85;73.23
73103;BME280;61294;65.988;29.172;2023-05-15T03:48:36;98924.63;;;5.70;73.27
73103;BME280;61294;65.988;29.172;2023-05-15T03:51:02;98956.47;;;5.95;73.58
73103;BME280;61294;65.988;29.172;2023-05-15T03:53:28;98958.19;;;5.94;73.11
73103;BME280;61294;65.988;29.172;2023-05-15T03:55:55;98962.56;;;5.94;72.73
73103;BME280;61294;65.988;29.172;2023-05-15T03:58:21;98965.13;;;5.92;73.33
73103;BME280;61294;65.988;29.172;2023-05-15T04:00:47;98950.19;;;5.85;73.63
73103;BME280;61294;65.988;29.172;2023-05-15T04:03:13;98951.94;;;5.84;73.90
73103;BME280;61294;65.988;29.172;2023-05-15T04:05:38;98945.00;;;5.86;73.92
73103;BME280;61294;65.988;29.172;2023-05-15T04:08:04;98938.13;;;5.92;74.04
73103;BME280;61294;65.988;29.172;2023-05-15T04:10:30;98944.38;;;6.00;73.66
73103;BME280;61294;65.988;29.172;2023-05-15T04:12:56;98931.53;;;6.12;73.93
73103;BME280;61294;65.988;29.172;2023-05-15T04:15:24;98939.44;;;6.15;74.02
73103;BME280;61294;65.988;29.172;2023-05-15T04:17:53;98941.41;;;6.27;74.00
73103;BME280;61294;65.988;29.172;2023-05-15T04:20:20;98943.13;;;6.27;74.55
73103;BME280;61294;65.988;29.172;2023-05-15T04:22:46;98946.84;;;6.41;73.37
73103;BME280;61294;65.988;29.172;2023-05-15T04:25:13;98943.56;;;6.51;73.15
73103;BME280;61294;65.988;29.172;2023-05-15T04:27:42;98912.03;;;6.47;74.12
73103;BME280;61294;65.988;29.172;2023-05-15T04:30:09;98942.06;;;6.67;73.85
73103;BME280;61294;65.988;29.172;2023-05-15T04:32:36;98944.78;;;6.77;74.18
73103;BME280;61294;65.988;29.172;2023-05-15T04:35:03;98937.06;;;6.83;74.10
73103;BME280;61294;65.988;29.172;2023-05-15T04:37:43;98932.75;;;6.89;74.66
73103;BME280;61294;65.988;29.172;2023-05-15T04:40:12;98936.38;;;6.96;75.36
73103;BME280;61294;65.988;29.172;2023-05-15T04:42:40;98925.06;;;6.99;75.09
73103;BME280;61294;65.988;29.172;2023-05-15T04:45:07;98941.88;;;7.15;74.84
73103;BME280;61294;65.988;29.172;2023-05-15T04:47:34;98930.63;;;7.23;74.61
73103;BME280;61294;65.988;29.172;2023-05-15T04:49:59;98879.75;;;7.06;73.02
73103;BME280;61294;65.988;29.172;2023-05-15T04:52:25;98929.97;;;7.40;73.10
73103;BME280;61294;65.988;29.172;2023-05-15T04:54:51;98924.78;;;7.46;73.14
73103;BME280;61294;65.988;29.172;2023-05-15T04:57:17;98925.78;;;7.54;73.34
73103;BME280;61294;65.988;29.172;2023-05-15T04:59:43;98926.75;;;7.64;73.22
73103;BME280;61294;65.988;29.172;2023-05-15T05:02:09;98914.66;;;7.74;73.17
73103;BME280;61294;65.988;29.172;2023-05-15T05:04:35;98887.47;;;7.69;72.25
73103;BME280;61294;65.988;29.172;2023-05-15T05:07:00;98920.06;;;7.91;71.83
73103;BME280;61294;65.988;29.172;2023-05-15T05:09:30;98914.13;;;8.12;71.49
73103;BME280;61294;65.988;29.172;2023-05-15T05:11:58;98910.84;;;8.35;71.31
73103;BME280;61294;65.988;29.172;2023-05-15T05:14:25;98877.59;;;8.35;70.28
73103;BME280;61294;65.988;29.172;2023-05-15T05:16:51;98907.66;;;8.74;69.59
73103;BME280;61294;65.988;29.172;2023-05-15T05:19:16;98880.44;;;8.61;68.22
73103;BME280;61294;65.988;29.172;2023-05-15T05:21:42;98898.16;;;8.95;67.58
73103;BME280;61294;65.988;29.172;2023-05-15T05:24:08;98903.47;;;9.01;67.28
73103;BME280;61294;65.988;29.172;2023-05-15T05:26:34;98874.53;;;8.96;67.13
73103;BME280;61294;65.988;29.172;2023-05-15T05:28:59;98907.06;;;9.19;66.47
73103;BME280;61294;65.988;29.172;2023-05-15T05:31:25;98886.00;;;9.11;65.34
73103;BME280;61294;65.988;29.172;2023-05-15T05:33:51;98902.63;;;9.13;65.35
73103;BME280;61294;65.988;29.172;2023-05-15T05:36:17;98901.72;;;9.05;65.24
73103;BME280;61294;65.988;29.172;2023-05-15T05:38:43;98895.69;;;9.20;65.83
73103;BME280;61294;65.988;29.172;2023-05-15T05:41:08;98885.19;;;9.30;65.75
73103;BME280;61294;65.988;29.172;2023-05-15T05:43:34;98882.59;;;9.35;65.44
73103;BME280;61294;65.988;29.172;2023-05-15T05:46:01;98880.03;;;9.57;64.58
73103;BME280;61294;65.988;29.172;2023-05-15T05:48:27;98888.78;;;9.54;64.26
73103;BME280;61294;65.988;29.172;2023-05-15T05:50:53;98856.31;;;9.41;64.23
73103;BME280;61294;65.988;29.172;2023-05-15T05:53:19;98885.34;;;9.78;63.42
73103;BME280;61294;65.988;29.172;2023-05-15T05:55:45;98885.38;;;9.98;63.64
73103;BME280;61294;65.988;29.172;2023-05-15T05:58:11;98880.13;;;9.89;62.75
73103;BME280;61294;65.988;29.172;2023-05-15T06:00:36;98875.72;;;9.99;62.60
73103;BME280;61294;65.988;29.172;2023-05-15T06:03:02;98876.63;;;10.10;62.47
73103;BME280;61294;65.988;29.172;2023-05-15T06:05:28;98837.19;;;10.35;60.71
73103;BME280;61294;65.988;29.172;2023-05-15T06:07:54;98877.53;;;10.66;60.13
73103;BME280;61294;65.988;29.172;2023-05-15T06:10:21;98844.16;;;10.62;59.41
73103;BME280;61294;65.988;29.172;2023-05-15T06:12:47;98840.66;;;10.56;59.42
73103;BME280;61294;65.988;29.172;2023-05-15T06:15:13;98854.63;;;10.90;59.12
73103;BME280;61294;65.988;29.172;2023-05-15T06:17:39;98858.16;;;10.94;58.40
73103;BME280;61294;65.988;29.172;2023-05-15T06:20:05;98859.78;;;11.26;57.89
73103;BME280;61294;65.988;29.172;2023-05-15T06:22:32;98869.44;;;11.36;56.80
73103;BME280;61294;65.988;29.172;2023-05-15T06:24:58;98837.81;;;11.27;56.63
73103;BME280;61294;65.988;29.172;2023-05-15T06:27:24;98830.75;;;11.33;56.09
73103;BME280;61294;65.988;29.172;2023-05-15T06:29:51;98865.00;;;11.47;56.86
73103;BME280;61294;65.988;29.172;2023-05-15T06:32:16;98858.81;;;11.53;57.21
73103;BME280;61294;65.988;29.172;2023-05-15T06:34:42;98845.59;;;11.51;56.76
73103;BME280;61294;65.988;29.172;2023-05-15T06:37:08;98852.41;;;11.91;54.93
73103;BME280;61294;65.988;29.172;2023-05-15T06:39:33;98851.47;;;12.01;54.69
73103;BME280;61294;65.988;29.172;2023-05-15T06:41:59;98849.72;;;12.03;54.45
73103;BME280;61294;65.988;29.172;2023-05-15T06:44:34;98840.00;;;12.05;54.08
73103;BME280;61294;65.988;29.172;2023-05-15T06:47:00;98821.53;;;12.04;53.38
73103;BME280;61294;65.988;29.172;2023-05-15T06:49:26;98844.78;;;12.64;50.76
73103;BME280;61294;65.988;29.172;2023-05-15T06:51:52;98851.69;;;12.77;51.45
73103;BME280;61294;65.988;29.172;2023-05-15T06:54:19;98804.13;;;12.77;50.43
73103;BME280;61294;65.988;29.172;2023-05-15T06:56:45;98849.75;;;12.93;50.55
73103;BME280;61294;65.988;29.172;2023-05-15T06:59:11;98846.75;;;13.26;49.17
73103;BME280;61294;65.988;29.172;2023-05-15T07:01:36;98844.16;;;13.23;49.19
73103;BME280;61294;65.988;29.172;2023-05-15T07:04:03;98822.19;;;13.15;48.67
73103;BME280;61294;65.988;29.172;2023-05-15T07:06:29;98830.44;;;12.90;50.33
73103;BME280;61294;65.988;29.172;2023-05-15T07:08:57;98829.94;;;13.30;48.56
73103;BME280;61294;65.988;29.172;2023-05-15T07:11:23;98828.13;;;13.34;48.39
73103;BME280;61294;65.988;29.172;2023-05-15T07:13:48;98837.72;;;13.45;47.76
73103;BME280;61294;65.988;29.172;2023-05-15T07:16:14;98840.38;;;13.45;48.65
73103;BME280;61294;65.988;29.172;2023-05-15T07:18:40;98838.19;;;13.75;46.39
73103;BME280;61294;65.988;29.172;2023-05-15T07:21:06;98834.03;;;13.56;46.96
73103;BME280;61294;65.988;29.172;2023-05-15T07:23:31;98806.66;;;13.58;46.86
73103;BME280;61294;65.988;29.172;2023-05-15T07:25:57;98831.91;;;13.79;46.54
73103;BME280;61294;65.988;29.172;2023-05-15T07:28:23;98829.97;;;13.94;46.12
73103;BME280;61294;65.988;29.172;2023-05-15T07:30:48;98827.78;;;14.19;45.53
73103;BME280;61294;65.988;29.172;2023-05-15T07:33:14;98832.38;;;14.08;45.27
73103;BME280;61294;65.988;29.172;2023-05-15T07:35:40;98830.09;;;14.39;44.65
73103;BME280;61294;65.988;29.172;2023-05-15T07:38:07;98827.22;;;14.52;43.91
73103;BME280;61294;65.988;29.172;2023-05-15T07:40:33;98791.69;;;14.63;42.65
73103;BME280;61294;65.988;29.172;2023-05-15T07:42:58;98824.09;;;14.81;42.71
73103;BME280;61294;65.988;29.172;2023-05-15T07:45:24;98812.09;;;15.07;41.81
73103;BME280;61294;65.988;29.172;2023-05-15T07:47:50;98795.31;;;15.05;41.60
73103;BME280;61294;65.988;29.172;2023-05-15T07:50:16;98783.78;;;15.07;40.89
73103;BME280;61294;65.988;29.172;2023-05-15T07:52:42;98816.59;;;15.45;41.05
73103;BME280;61294;65.988;29.172;2023-05-15T07:55:09;98820.38;;;15.74;40.38
73103;BME280;61294;65.988;29.172;2023-05-15T07:57:35;98810.56;;;15.79;40.17
73103;BME280;61294;65.988;29.172;2023-05-15T08:00:01;98793.09;;;15.66;40.27
73103;BME280;61294;65.988;29.172;2023-05-15T08:02:34;98804.88;;;15.95;40.20
73103;BME280;61294;65.988;29.172;2023-05-15T08:05:00;98807.50;;;15.96;39.73
73103;BME280;61294;65.988;29.172;2023-05-15T08:07:25;98771.25;;;15.94;40.12
73103;BME280;61294;65.988;29.172;2023-05-15T08:09:51;98801.28;;;16.33;39.70
73103;BME280;61294;65.988;29.172;2023-05-15T08:12:20;98809.53;;;16.55;39.00
73103;BME280;61294;65.988;29.172;2023-05-15T08:14:48;98804.34;;;16.84;38.37
73103;BME280;61294;65.988;29.172;2023-05-15T08:17:13;98791.78;;;16.90;38.93
73103;BME280;61294;65.988;29.172;2023-05-15T08:19:39;98803.09;;;16.99;38.03
73103;BME280;61294;65.988;29.172;2023-05-15T08:22:05;98792.31;;;17.03;37.73
73103;BME280;61294;65.988;29.172;2023-05-15T08:24:31;98774.66;;;17.01;37.65
73103;BME280;61294;65.988;29.172;2023-05-15T08:26:57;98790.31;;;17.10;37.64
73103;BME280;61294;65.988;29.172;2023-05-15T08:29:22;98796.47;;;17.43;36.82
73103;BME280;61294;65.988;29.172;2023-05-15T08:31:48;98790.84;;;17.81;37.16
73103;BME280;61294;65.988;29.172;2023-05-15T08:34:14;98779.44;;;17.77;35.67
73103;BME280;61294;65.988;29.172;2023-05-15T08:36:39;98770.53;;;17.77;36.18
73103;BME280;61294;65.988;29.172;2023-05-15T08:39:05;98787.38;;;18.07;36.70
73103;BME280;61294;65.988;29.172;2023-05-15T08:41:37;98777.53;;;18.09;36.83
73103;BME280;61294;65.988;29.172;2023-05-15T08:44:08;98787.16;;;18.40;36.03
73103;BME280;61294;65.988;29.172;2023-05-15T08:46:35;98777.50;;;18.63;36.47
73103;BME280;61294;65.988;29.172;2023-05-15T08:49:05;98781.09;;;18.87;35.37
73103;BME280;61294;65.988;29.172;2023-05-15T08:51:32;98779.53;;;19.05;35.92
73103;BME280;61294;65.988;29.172;2023-05-15T08:53:58;98765.22;;;19.08;35.26
73103;BME280;61294;65.988;29.172;2023-05-15T08:56:24;98775.31;;;19.23;34.43
73103;BME280;61294;65.988;29.172;2023-05-15T08:58:51;98774.47;;;19.45;36.14
73103;BME280;61294;65.988;29.172;2023-05-15T09:01:17;98752.63;;;19.57;34.12
73103;BME280;61294;65.988;29.172;2023-05-15T09:03:43;98770.22;;;19.87;34.05
73103;BME280;61294;65.988;29.172;2023-05-15T09:06:09;98765.75;;;20.08;34.32
73103;BME280;61294;65.988;29.172;2023-05-15T09:08:35;98735.34;;;20.10;33.39
73103;BME280;61294;65.988;29.172;2023-05-15T09:11:03;98746.03;;;20.32;34.99
73103;BME280;61294;65.988;29.172;2023-05-15T09:13:29;98755.00;;;20.73;33.79
73103;BME280;61294;65.988;29.172;2023-05-15T09:15:55;98765.34;;;21.20;31.97
73103;BME280;61294;65.988;29.172;2023-05-15T09:18:21;98756.25;;;21.05;31.85
73103;BME280;61294;65.988;29.172;2023-05-15T09:20:47;98751.84;;;21.42;31.13
73103;BME280;61294;65.988;29.172;2023-05-15T09:23:24;98745.75;;;21.77;31.51
73103;BME280;61294;65.988;29.172;2023-05-15T09:25:51;98750.03;;;22.35;30.63
73103;BME280;61294;65.988;29.172;2023-05-15T09:28:29;98749.75;;;22.22;30.30
73103;BME280;61294;65.988;29.172;2023-05-15T09:31:02;98728.19;;;23.09;29.77
73103;BME280;61294;65.988;29.172;2023-05-15T09:33:37;98726.22;;;24.84;26.78
73103;BME280;61294;65.988;29.172;2023-05-15T09:36:05;98746.38;;;27.61;23.49
73103;BME280;61294;65.988;29.172;2023-05-15T09:38:40;98739.88;;;30.61;20.15
73103;BME280;61294;65.988;29.172;2023-05-15T09:41:12;98709.16;;;31.73;18.99
73103;BME280;61294;65.988;29.172;2023-05-15T09:43:39;98712.91;;;34.55;18.46
73103;BME280;61294;65.988;29.172;2023-05-15T09:46:06;98725.34;;;34.94;15.25
73103;BME280;61294;65.988;29.172;2023-05-15T09:48:37;98722.94;;;35.25;16.36
73103;BME280;61294;65.988;29.172;2023-05-15T09:51:04;98706.47;;;35.17;14.76
73103;BME280;61294;65.988;29.172;2023-05-15T09:53:31;98712.69;;;34.92;15.20
73103;BME280;61294;65.988;29.172;2023-05-15T09:55:57;98725.47;;;35.45;14.39
73103;BME280;61294;65.988;29.172;2023-05-15T09:58:23;98696.81;;;37.13;15.07
73103;BME280;61294;65.988;29.172;2023-05-15T10:00:48;98701.63;;;37.11;13.24
73103;BME280;61294;65.988;29.172;2023-05-15T10:03:16;98696.22;;;37.43;13.38
73103;BME280;61294;65.988;29.172;2023-05-15T10:05:42;98708.44;;;37.32;13.32
73103;BME280;61294;65.988;29.172;2023-05-15T10:08:08;98695.34;;;36.86;14.18
73103;BME280;61294;65.988;29.172;2023-05-15T10:10:33;98697.06;;;38.29;12.16
73103;BME280;61294;65.988;29.172;2023-05-15T10:13:00;98694.72;;;37.16;13.13
73103;BME280;61294;65.988;29.172;2023-05-15T10:15:32;98667.53;;;36.89;12.44
73103;BME280;61294;65.988;29.172;2023-05-15T10:17:58;98693.09;;;38.09;11.43
73103;BME280;61294;65.988;29.172;2023-05-15T10:20:25;98690.06;;;38.27;12.37
73103;BME280;61294;65.988;29.172;2023-05-15T10:22:53;98695.53;;;37.80;12.83
73103;BME280;61294;65.988;29.172;2023-05-15T10:25:40;98685.69;;;38.09;12.12
73103;BME280;61294;65.988;29.172;2023-05-15T10:28:08;98685.91;;;37.45;13.04
73103;BME280;61294;65.988;29.172;2023-05-15T10:30:35;98661.47;;;40.07;11.63
73103;BME280;61294;65.988;29.172;2023-05-15T10:33:03;98674.72;;;39.60;10.54
73103;BME280;61294;65.988;29.172;2023-05-15T10:35:29;98683.44;;;38.36;11.40
73103;BME280;61294;65.988;29.172;2023-05-15T10:37:56;98680.13;;;39.53;11.78
73103;BME280;61294;65.988;29.172;2023-05-15T10:40:22;98677.03;;;38.97;11.86
73103;BME280;61294;65.988;29.172;2023-05-15T10:42:49;98672.09;;;34.35;13.15
73103;BME280;61294;65.988;29.172;2023-05-15T10:45:14;98664.91;;;33.80;14.43
73103;BME280;61294;65.988;29.172;2023-05-15T10:47:42;98649.00;;;33.94;14.78
73103;BME280;61294;65.988;29.172;2023-05-15T10:50:10;98664.44;;;37.48;12.33
73103;BME280;61294;65.988;29.172;2023-05-15T10:52:37;98664.13;;;33.04;14.68
73103;BME280;61294;65.988;29.172;2023-05-15T10:55:13;98663.09;;;33.15;14.81
73103;BME280;61294;65.988;29.172;2023-05-15T10:57:41;98626.22;;;37.22;13.14
73103;BME280;61294;65.988;29.172;2023-05-15T11:00:26;98642.19;;;31.41;17.28
73103;BME280;61294;65.988;29.172;2023-05-15T11:02:53;98643.69;;;28.19;19.78
73103;BME280;61294;65.988;29.172;2023-05-15T11:05:22;98653.72;;;28.06;20.06
73103;BME280;61294;65.988;29.172;2023-05-15T11:10:50;98622.22;;;26.05;21.38
73103;BME280;61294;65.988;29.172;2023-05-15T11:13:17;98636.06;;;24.90;23.56
73103;BME280;61294;65.988;29.172;2023-05-15T11:15:46;98658.84;;;25.13;23.75
73103;BME280;61294;65.988;29.172;2023-05-15T11:18:13;98640.69;;;24.14;24.27
73103;BME280;61294;65.988;29.172;2023-05-15T11:20:41;98641.22;;;23.90;25.03
73103;BME280;61294;65.988;29.172;2023-05-15T11:23:07;98665.03;;;23.66;25.62
73103;BME280;61294;65.988;29.172;2023-05-15T11:25:34;98669.03;;;23.27;26.78
73103;BME280;61294;65.988;29.172;2023-05-15T11:28:02;98678.91;;;22.26;28.03
73103;BME280;61294;65.988;29.172;2023-05-15T11:30:39;98677.63;;;22.51;28.23
73103;BME280;61294;65.988;29.172;2023-05-15T11:33:06;98675.28;;;22.45;28.06
73103;BME280;61294;65.988;29.172;2023-05-15T11:35:46;98682.19;;;22.31;28.15
73103;BME280;61294;65.988;29.172;2023-05-15T11:38:23;98684.53;;;21.48;29.09
73103;BME280;61294;65.988;29.172;2023-05-15T11:40:56;98655.75;;;21.53;28.95
73103;BME280;61294;65.988;29.172;2023-05-15T11:43:32;98683.53;;;21.32;29.23
73103;BME280;61294;65.988;29.172;2023-05-15T11:48:33;98665.75;;;21.12;29.42
73103;BME280;61294;65.988;29.172;2023-05-15T11:51:03;98683.84;;;21.26;29.98
73103;BME280;61294;65.988;29.172;2023-05-15T11:53:31;98668.34;;;20.94;30.13
73103;BME280;61294;65.988;29.172;2023-05-15T11:55:57;98672.63;;;20.79;30.52
73103;BME280;61294;65.988;29.172;2023-05-15T11:58:24;98661.44;;;21.46;30.06
73103;BME280;61294;65.988;29.172;2023-05-15T12:00:51;98669.53;;;22.35;28.92
73103;BME280;61294;65.988;29.172;2023-05-15T12:03:25;98621.25;;;22.51;28.79
73103;BME280;61294;65.988;29.172;2023-05-15T12:05:52;98673.44;;;22.79;27.96
73103;BME280;61294;65.988;29.172;2023-05-15T12:08:19;98667.66;;;23.82;26.75
73103;BME280;61294;65.988;29.172;2023-05-15T12:10:48;98658.69;;;23.03;27.86
73103;BME280;61294;65.988;29.172;2023-05-15T12:13:16;98658.06;;;22.98;28.02
73103;BME280;61294;65.988;29.172;2023-05-15T12:15:44;98663.38;;;23.16;28.41
73103;BME280;61294;65.988;29.172;2023-05-15T12:18:11;98660.69;;;22.50;28.11
73103;BME280;61294;65.988;29.172;2023-05-15T12:20:38;98666.03;;;22.33;28.72
73103;BME280;61294;65.988;29.172;2023-05-15T12:23:06;98659.16;;;23.43;28.34
73103;BME280;61294;65.988;29.172;2023-05-15T12:25:33;98641.22;;;23.28;27.71
73103;BME280;61294;65.988;29.172;2023-05-15T12:28:02;98655.34;;;22.31;28.96
73103;BME280;61294;65.988;29.172;2023-05-15T12:30:30;98652.53;;;21.82;29.71
73103;BME280;61294;65.988;29.172;2023-05-15T12:33:07;98631.28;;;21.23;30.59
73103;BME280;61294;65.988;29.172;2023-05-15T12:35:41;98621.81;;;20.78;30.73
73103;BME280;61294;65.988;29.172;2023-05-15T12:38:08;98653.81;;;20.81;31.65
73103;BME280;61294;65.988;29.172;2023-05-15T12:40:38;98638.44;;;20.45;32.24
73103;BME280;61294;65.988;29.172;2023-05-15T12:43:05;98650.03;;;20.45;33.04
73103;BME280;61294;65.988;29.172;2023-05-15T12:45:31;98674.28;;;19.79;34.85
73103;BME280;61294;65.988;29.172;2023-05-15T12:47:59;98628.56;;;19.42;36.14
73103;BME280;61294;65.988;29.172;2023-05-15T12:50:25;98663.66;;;19.55;36.73
73103;BME280;61294;65.988;29.172;2023-05-15T12:52:56;98649.75;;;19.25;36.68
73103;BME280;61294;65.988;29.172;2023-05-15T12:55:34;98666.94;;;19.18;36.89
73103;BME280;61294;65.988;29.172;2023-05-15T12:58:03;98665.47;;;19.33;36.72
73103;BME280;61294;65.988;29.172;2023-05-15T13:00:32;98645.28;;;19.47;36.42
73103;BME280;61294;65.988;29.172;2023-05-15T13:02:59;98660.19;;;19.53;36.58
73103;BME280;61294;65.988;29.172;2023-05-15T13:05:26;98652.72;;;19.39;37.20
73103;BME280;61294;65.988;29.172;2023-05-15T13:07:52;98654.97;;;19.28;36.91
73103;BME280;61294;65.988;29.172;2023-05-15T13:10:22;98620.09;;;18.63;37.29
73103;BME280;61294;65.988;29.172;2023-05-15T13:12:52;98654.63;;;18.91;37.61